Tropical Cyclones
[Index]
Main Index Home Page Stock Weather Photos Extreme Storms Discussion Storm News and Storm Chasing Reports Tropical Cyclones / Hurricanes / Typhoons Weather Data and Links Wild Fires / Bushfires Weather Observation Techniques Weather Picture Catalogue Tornado Pictures and Reports Stock Video Footage and DVDs for sale
Season 1966-1967 Tropical Cyclone HUGUETTE Track Map
Season 1966-1967 Summaries: [BoM-AU] [JTWC-AU] [JTWC-SIO] [JTWC-SPAC] [JTWC-SH]
<<- Previous TC | JTWC 1966-1967 Season | Next TC ->>

click for intensity scale information  Lat/long Grid: Show Hide

 Date Labels: Show Hide

Joint Typhoon Warning Centre Cyclone Data

Name: HUGUETTE
Number: 633 / 6718

07 Feb 1967 18:00 UTC to 17 Feb 1967 18:00 UTC

    date/time    lat    long     hPa   cat  kts
1967-02-07 18   12.5    62.9                              
1967-02-08 00   12.7    62.5                              
1967-02-08 06   12.9    62.2                              
1967-02-08 12   13.2    62.0                              
1967-02-08 18   13.5    61.8                              
1967-02-09 00   13.6    61.5                              
1967-02-09 06   13.7    61.2                              
1967-02-09 12   13.8    61.1                              
1967-02-09 18   13.8    61.0                              
1967-02-10 00   13.9    60.8                              
1967-02-10 06   14.1    60.6                              
1967-02-10 12   14.5    61.2                              
1967-02-10 18   15.2    62.0                              
1967-02-11 00   15.9    62.4                              
1967-02-11 06   16.7    62.7                              
1967-02-11 12   17.5    63.0                              
1967-02-11 18   18.3    63.2                              
1967-02-12 00   19.1    63.3                              
1967-02-12 06   20.0    63.4                              
1967-02-12 12   20.8    63.8                              
1967-02-12 18   21.7    64.5                              
1967-02-13 00   22.3    65.4                              
1967-02-13 06   22.8    66.3                              
1967-02-13 12   23.4    66.6                              
1967-02-13 18   24.1    66.5                              
1967-02-14 00   25.3    66.3                              
1967-02-14 06   26.3    66.0                              
1967-02-14 12   26.2    65.2                              
1967-02-14 18   25.9    64.4                              
1967-02-15 00   25.4    64.1                              
1967-02-15 06   25.1    63.7                              
1967-02-15 12   25.0    62.8                              
1967-02-15 18   25.0    61.9                              
1967-02-16 00   25.0    61.1                              
1967-02-16 06   25.0    60.2                              
1967-02-16 12   25.1    59.3                              
1967-02-16 18   25.2    58.3                              
1967-02-17 00   25.4    57.7                              
1967-02-17 06   25.8    57.1                              
1967-02-17 12   26.4    55.8                              
1967-02-17 18   27.2    53.8                              
Winds are 1-min average.

Tropical cyclone tracks developed by Michael Bath using data from the Joint Typhoon Warning Centre Best Tracks and Google Maps.


[Australian Severe Weather index] [Copyright Notice] [Email Contacts] [Search This Site] [Privacy Policy]
Document: tropical_cyclone_huguette.htm Updated: 18 September 2016